NCAR-RAP Real-Time Weather Data

Output produced by METARs form (23 January 2018  15:43 UTC)
found at http://weather.rap.ucar.edu/surface/
 
RJNT 231200Z 20006KT 8000 -SHSN FEW005 SCT020 BKN030 M01/M01 Q1011
RJNT 231100Z 24004KT 210V280 1800 -SHSN FEW005 SCT007 BKN009 M00/M01 Q1011
RJNT 231000Z 19006KT 0900 SHSN VV005 M00/M01 Q1011
RJNT 230937Z 20007KT 140V220 0800 SHSN VV005 M00/M01 Q1011 RMK A2987
RJNT 230931Z 21006KT 140V240 2000 -SHSN FEW005 SCT007 BKN009 M00/M01 Q1011 RMK 1CU005 3CU007 5CU009 A2987
RJNT 230900Z 24010KT 210V270 6000 -SHSN FEW005 SCT010 BKN015 00/M01 Q1011
RJNT 230847Z 20016KT 3500 -SHSN FEW005 SCT010 BKN015 M00/M01 Q1010 RMK 1CU005 3CU010 5CU015 A2985
RJNT 230834Z 20013KT 2000 -SHSN FEW005 SCT007 BKN009 00/M01 Q1010 RMK 1CU005 3CU007 5CU009 A2985
RJNT 230822Z 21018KT 5000 -SHSN FEW005 SCT020 BKN030 00/M01 Q1010 RMK 1CU005 3CU020 5CU030 A2983
RJNT 230803Z 23017G31KT 2500 -SHSN FEW005 SCT010 BKN020 01/M03 Q1010 RMK 1CU005 3CU010 5CU020 A2984
RJNT 230800Z 23017KT 3000 -SHSN FEW005 SCT010 BKN020 02/M03 Q1010
RJNT 230702Z 24021G33KT 9999 -SHSN FEW005 SCT020 BKN030 02/M03 Q1010 RMK 1CU005 3CU020 5CU030 A2983 4000W-N
RJNT 230700Z 24021KT 9999 -SHSN FEW005 SCT030 02/M03 Q1010
RJNT 230632Z 24025G39KT 6000 -SHSN FEW005 SCT020 02/M01 Q1009 RMK 1CU005 4CU020 A2982
RJNT 230627Z 25026G44KT 3500 -SHSN FEW005 SCT010 BKN015 01/M01 Q1009 RMK 1CU005 3CU010 5CU015 A2982
RJNT 230618Z 25025G41KT 2000 -SHSN FEW005 SCT007 BKN009 02/M01 Q1009 RMK 1CU005 3CU007 5CU009 A2981
RJNT 230602Z 25020G30KT 8000 -SHSN FEW005 SCT020 BKN030 02/M00 Q1008 RMK 1CU005 3CU020 5CU030 A2979
RJNT 230600Z 25021KT 8000 -SHSN FEW005 SCT020 BKN030 02/M00 Q1008
RJNT 230526Z 25020G32KT 220V290 5000 -SHSN FEW005 SCT010 BKN020 02/01 Q1008 RMK 1CU005 3CU010 5CU020 A2978
RJNT 230518Z 25024G37KT 220V290 3000 -SHSN FEW005 SCT007 BKN009 01/00 Q1008 RMK 1CU005 3CU007 5CU009 A2978
RJNT 230515Z 25023G37KT 0800 SHSN VV004 02/00 Q1008 RMK A2978 P/RR
RJNT 230510Z 25021G42KT 1800 -SHSNRA FEW005 SCT007 BKN009 02/00 Q1008 RMK 1CU005 3CU007 5CU009 A2977
RJNT 230503Z 25017G42KT 4000 -SHRASN FEW005 SCT007 BKN010 03/M00 Q1007 RMK 1CU005 3CU007 5CU010 A2976 8000NW-N
RJNT 230500Z 24017G28KT 7000 -SHRASN FEW005 SCT010 BKN020 03/00 Q1007
RJNT 230427Z 24017G27KT 220V280 5000 -SHRASN FEW005 SCT007 BKN010 03/01 Q1007 RMK 1CU005 3CU007 5CU010 A2976
RJNT 230412Z 24015KT 210V280 7000 -SHRASNGS FEW005 SCT010 BKN020 03/01 Q1006 RMK 1ST005 3CU010 6CU020 A2973 SNOW PELLETS
RJNT 230400Z 24015KT 8000 -SHRASN FEW005 SCT010 BKN020 04/01 Q1006
RJNT 230348Z 25018KT 8000 -SHRASN FEW005 SCT010 BKN020 04/01 Q1006 RMK 1ST005 3CU010 5CU020 A2972
RJNT 230334Z 25017G28KT 8000 -SHRAGS FEW005 SCT010 BKN020 FEW020CB 05/01 Q1006 RMK 1ST005 3CU010 5CU020 1CB020 A2972 CB 40KM NW MOV NE SMALL HAIL
RJNT 230310Z 25015G26KT 9999 -SHRA FEW005 SCT010 BKN030 06/01 Q1005 RMK 1ST005 3CU010 5CU030 A2970
RJNT 230306Z 25015KT 9999 -SHRA FEW005 SCT010 BKN030 06/01 Q1005 RMK 1ST005 3CU010 5CU030 A2969
RJNT 230300Z 25014KT 9999 -SHRAGS FEW005 SCT010 BKN020 FEW020CB 06/01 Q1005
RJNT 230231Z 24015G25KT 9999 -SHRASN FEW005 SCT010 BKN030 05/02 Q1005 RMK 1ST005 3CU010 5CU030 A2969
RJNT 230221Z 24015G25KT 9999 -SHRASNGS FEW005 SCT010 BKN020 FEW020CB 05/01 Q1005 RMK 1ST005 3CU010 5CU020 1CB020 A2970 CB 20KM NE MOV NE SMALL HAIL
RJNT 230217Z 24016KT 8000 -SHRASNGS FEW005 SCT010 BKN020 FEW020CB 05/01 Q1005 RMK 1ST005 3CU010 5CU020 1CB020 A2970 CB 15KM SW MOV NE SMALL HAIL
RJNT 230210Z 25022G34KT 9999 -SHRASN FEW005 SCT010 BKN020 05/02 Q1005 RMK 1ST005 3CU010 5CU020 A2969
RJNT 230200Z 23018G32KT 8000 -SHRASNGS FEW005 SCT010 BKN020 05/01 Q1005
RJNT 230107Z 21015G25KT 180V260 9999 -SHRA FEW005 SCT015 BKN030 06/01 Q1006 RMK 1ST005 3CU015 5CU030 A2972
RJNT 230100Z 19013KT 160V230 9999 -SHRA FEW005 SCT015 BKN030 06/01 Q1006
RJNT 230018Z 21015G25KT 9999 -SHRA FEW005 SCT015 BKN030 05/01 Q1006 RMK 1ST005 3CU015 5CU030 A2971
RJNT 230000Z 20011KT 170V230 8000 -SHRA FEW003 SCT010 BKN020 FEW020CB 04/01 Q1006
RJNT 222330Z 21010KT 9999 -SHRA FEW003 SCT020 FEW020CB BKN030 04/01 Q1005 RMK 1ST003 4CU020 1CB020 6CU030 A2969 CB 40KM NW MOV NE
RJNT 222300Z 15003KT 110V220 9999 -SHRA FEW003 SCT020 FEW020CB BKN030 03/01 Q1005
RJNT 222200Z 18005KT 140V280 9999 -SHRASN FEW010 SCT020 BKN030 03/01 Q1005
RJNT 222110Z 19012KT 9999 -SHRASN FEW010 SCT040 BKN050 04/M01 Q1005 RMK 1CU010 3CU040 6SC050 A2969
RJNT 221200Z 30002KT 8000 -SNRA FEW005 SCT050 BKN060 01/01 Q1010
RJNT 221100Z 00000KT 5000 -SNRA FEW005 SCT020 BKN030 01/01 Q1010
RJNT 221026Z 00000KT 3500 -SN FEW005 SCT010 BKN030 00/00 Q1011 RMK 1ST005 3ST010 6SC030 A2987
RJNT 221000Z VRB01KT 2500 -SN FEW005 SCT008 BKN015 00/00 Q1011
RJNT 220900Z 23002KT 2000 -SN FEW005 SCT007 BKN010 00/00 Q1012
RJNT 220834Z 23002KT 1000 -SN VV005 00/00 Q1012 RMK A2989
RJNT 220800Z 23002KT 0900 SN VV004 00/00 Q1012
RJNT 220749Z 23002KT 1000 -SN VV005 00/00 Q1012 RMK A2988
RJNT 220700Z 23001KT 0800 SN VV004 00/00 Q1011
RJNT 220600Z 20002KT 0800 SN VV004 00/M00 Q1012
RJNT 220509Z 26001KT 1200 -SN FEW005 SCT007 BKN009 01/M00 Q1013 RMK 1ST005 3ST007 6ST009 A2992
RJNT 220500Z VRB01KT 2000 -SN FEW005 SCT010 BKN015 01/M01 Q1013
RJNT 220448Z VRB01KT 2000 -SN FEW005 SCT010 BKN020 01/M01 Q1013 RMK 1ST005 3ST010 6SC020 A2992
RJNT 220438Z 22003KT 180V250 3500 -SN FEW005 SCT010 BKN020 02/M01 Q1013 RMK 1ST005 3ST010 6SC020 A2992
RJNT 220400Z 23003KT 200V270 9999 -SNRA FEW005 SCT050 BKN080 02/M00 Q1014
RJNT 220300Z VRB02KT 9999 FEW003 SCT080 OVC100 02/M01 Q1015
RJNT 220200Z VRB01KT 9999 FEW003 SCT080 BKN100 02/M01 Q1017
RJNT 220100Z VRB01KT 9999 FEW030 SCT090 OVC110 02/M00 Q1018
RJNT 220000Z VRB01KT 9999 FEW020 SCT100 BKN120 01/M00 Q1019
RJNT 212300Z 18003KT 150V210 9999 FEW020 SCT100 BKN120 01/M00 Q1020
RJNT 212200Z VRB02KT 9999 FEW020 SCT120 BKN140 00/M01 Q1020
RJNT 212110Z VRB01KT 9999 FEW010 SCT120 BKN150 00/M01 Q1020 RMK 1CU010 3AC120 6AC150 A3014
RJNT 211200Z 09004KT 050V130 8000 -SHSN FEW003 SCT006 BKN010 02/01 Q1023
RJNT 211141Z 08003KT 020V130 8000 -SHSN FEW003 SCT006 BKN015 02/01 Q1023 RMK 1ST003 4CU006 6CU015 A3023
RJNT 211129Z 08003KT 030V140 6000 -SHSN FEW003 SCT006 BKN008 01/01 Q1023 RMK 1ST003 4CU006 5CU008 A3023
RJNT 211115Z 10003KT 050V140 4000 -SHSN FEW003 BKN006 BKN008 01/01 Q1023 RMK 1ST003 5CU006 6CU008 A3023
RJNT 211100Z 11003KT 070V170 3000 -SHSN FEW003 BKN006 BKN008 01/00 Q1023
RJNT 211041Z 10004KT 040V140 4000 -SHSN FEW003 SCT006 BKN008 01/00 Q1024 RMK 1ST003 4CU006 6CU008 A3024
RJNT 211029Z 07005KT 030V120 3000 -SHSN FEW003 SCT006 BKN008 01/01 Q1024 RMK 1ST003 3CU006 5CU008 A3025
RJNT 211005Z 04008KT 010V070 4000 -SHRASN BR FEW005 BKN008 BKN010 02/01 Q1024 RMK 1ST005 5CU008 6CU010 A3024
RJNT 211000Z 04007KT 5000 -SHRASN BR FEW005 SCT008 BKN010 02/01 Q1023
RJNT 210913Z 01009KT 6000 -SHRASN FEW005 SCT008 BKN012 03/01 Q1022 RMK 1ST005 4CU008 6CU012 A3020
RJNT 210900Z 01008KT 4000 -SHRASN BR FEW005 BKN008 BKN012 03/01 Q1022
RJNT 210808Z 35013KT 3500 -SHRASN BR FEW005 BKN008 BKN012 03/02 Q1021 RMK 1ST005 5CU008 6CU012 A3016 P/RR
RJNT 210800Z 35014KT 3000 SHRASN BR FEW005 BKN008 BKN012 03/02 Q1021
RJNT 210745Z 36010KT 4000 -SHRA BR FEW005 BKN008 BKN012 05/03 Q1020 RMK 1ST005 5CU008 6CU012 A3014 P/RR
RJNT 210700Z 34007KT 8000 -SHRA FEW005 SCT012 BKN020 05/03 Q1019
RJNT 210600Z 20006KT 8000 -SHRA FEW010 SCT020 BKN030 05/04 Q1019
RJNT 210548Z VRB02KT 6000 -SHRA BR FEW010 SCT020 BKN030 05/04 Q1018 RMK 1CU010 4CU020 6CU030 A3009 BR SE-SW
RJNT 210525Z 35006KT 4000 -SHRA BR FEW010 BKN020 BKN030 05/04 Q1018 RMK 1CU010 5CU020 6CU030 A3008 8000SE-SW
RJNT 210511Z 25005KT 220V330 6000 -SHRA BR FEW010 SCT020 BKN030 05/04 Q1018 RMK 1CU010 4CU020 6CU030 A3008 BR N-SE
RJNT 210500Z 26005KT 220V300 4000 -SHRA BR FEW010 SCT020 FEW020CB BKN030 05/04 Q1018
RJNT 210444Z 26008KT 4000 -SHRA BR FEW010 SCT020 FEW020CB BKN030 06/04 Q1018 RMK 1CU010 3CU020 1CB020 5CU030 A3008 CB 20KM NW MOV NE
RJNT 210429Z 28013KT 5000 -SHRA BR FEW020 SCT030 BKN040 06/03 Q1018 RMK 1CU020 4CU030 6CU040 A3007
RJNT 210418Z 28015G26KT 250V310 4000 -SHRA BR FEW020 SCT030 BKN040 07/02 Q1017 RMK 1CU020 3CU030 5CU040 A3006 8000SE-S
RJNT 210400Z 26007KT 230V310 9999 -SHRA FEW020 BKN050 09/01 Q1017